Time;durP1;ratioP1;P1;durP2;ratioP2;P2;SDS_P1;SDS_P2;PMS_P1;PMS_P2;Temp;Humidity;BMP_temperature;BMP_pressure;BME280_temperature;BME280_humidity;BME280_pressure;Samples;Min_cycle;Max_cycle;Signal;HPM_P1;HPM_P2
2023/01/16 00:01:50;;;;;;;0.10;0.10;;;;;;;2.07;100.00;94918.88;5051094;28;20063;-73
2023/01/16 00:04:35;;;;;;;0.20;0.20;;;;;;;2.12;100.00;94921.63;5052145;28;20345;-73
2023/01/16 00:07:21;;;;;;;0.20;0.20;;;;;;;2.05;100.00;94897.22;5054158;28;20118;-75
2023/01/16 00:10:08;;;;;;;0.20;0.20;;;;;;;2.00;100.00;94905.00;5050741;28;20127;-74
2023/01/16 00:12:54;;;;;;;0.20;0.20;;;;;;;2.07;100.00;94895.94;5052060;28;20321;-75
2023/01/16 00:15:48;;;;;;;0.20;0.20;;;;;;;2.03;100.00;94897.44;5064483;28;20055;-75
2023/01/16 00:18:34;;;;;;;0.15;0.15;;;;;;;1.92;100.00;94885.88;5054231;28;20079;-76
2023/01/16 00:21:24;;;;;;;0.20;0.20;;;;;;;1.94;100.00;94889.06;5050061;28;20617;-75
2023/01/16 00:24:10;;;;;;;0.10;0.10;;;;;;;1.85;100.00;94873.84;5052267;28;20131;-75
2023/01/16 00:26:56;;;;;;;0.20;0.20;;;;;;;1.83;100.00;94866.16;5050447;28;20335;-74
2023/01/16 00:29:42;;;;;;;0.20;0.20;;;;;;;1.84;100.00;94861.69;5054032;28;20599;-76
2023/01/16 00:32:28;;;;;;;0.20;0.20;;;;;;;1.84;100.00;94838.75;5051933;28;20057;-74
2023/01/16 00:35:13;;;;;;;0.20;0.20;;;;;;;1.80;100.00;94850.00;5053776;28;20036;-76
2023/01/16 00:38:00;;;;;;;0.20;0.20;;;;;;;1.84;100.00;94841.38;5051311;28;20049;-74
2023/01/16 00:40:45;;;;;;;0.10;0.10;;;;;;;1.84;100.00;94833.47;5050854;28;20463;-76
2023/01/16 00:43:32;;;;;;;0.30;0.30;;;;;;;1.82;100.00;94822.38;5053080;28;20044;-73
2023/01/16 00:46:18;;;;;;;0.20;0.20;;;;;;;1.88;100.00;94831.19;5062643;28;20044;-75
2023/01/16 00:49:04;;;;;;;0.20;0.20;;;;;;;1.94;100.00;94817.03;5043728;28;20489;-75
2023/01/16 00:51:50;;;;;;;0.17;0.17;;;;;;;1.94;100.00;94827.59;5051478;28;20127;-75
2023/01/16 00:54:36;;;;;;;0.20;0.20;;;;;;;2.01;100.00;94822.19;5050454;28;20037;-75
2023/01/16 00:57:22;;;;;;;0.20;0.20;;;;;;;1.98;100.00;94815.56;5052121;28;20108;-75
2023/01/16 01:00:09;;;;;;;0.20;0.20;;;;;;;1.97;100.00;94815.78;5049742;28;20056;-75
2023/01/16 01:02:55;;;;;;;0.20;0.20;;;;;;;1.95;100.00;94806.28;5063161;28;20168;-73
2023/01/16 01:05:43;;;;;;;0.20;0.20;;;;;;;2.07;100.00;94800.94;5050675;28;20323;-75
2023/01/16 01:08:29;;;;;;;0.10;0.10;;;;;;;2.06;100.00;94804.63;5052382;28;20905;-74
2023/01/16 01:11:15;;;;;;;0.10;0.10;;;;;;;2.10;100.00;94797.03;5037650;28;20773;-73
2023/01/16 01:14:01;;;;;;;0.20;0.20;;;;;;;2.20;100.00;94797.22;5050533;28;20151;-75
2023/01/16 01:16:49;;;;;;;0.20;0.20;;;;;;;2.15;100.00;94778.66;5048614;28;20108;-75
2023/01/16 01:19:35;;;;;;;0.20;0.20;;;;;;;2.14;100.00;94782.34;5050120;28;20040;-74
2023/01/16 01:22:21;;;;;;;0.20;0.20;;;;;;;2.20;100.00;94771.63;5052623;28;20036;-75
2023/01/16 01:25:07;;;;;;;0.20;0.20;;;;;;;2.14;100.00;94761.22;5053074;28;20074;-75
2023/01/16 01:27:53;;;;;;;0.20;0.20;;;;;;;2.15;100.00;94749.63;5054770;28;20051;-72
2023/01/16 01:30:39;;;;;;;0.20;0.20;;;;;;;2.13;100.00;94751.72;5054199;28;20049;-75
2023/01/16 01:33:25;;;;;;;0.20;0.20;;;;;;;2.07;100.00;94744.72;5040331;28;20043;-74
2023/01/16 01:36:11;;;;;;;0.17;0.17;;;;;;;2.05;100.00;94744.19;5052718;28;20113;-74
2023/01/16 01:38:59;;;;;;;0.20;0.20;;;;;;;1.99;100.00;94742.47;5055392;28;20053;-75
2023/01/16 01:41:45;;;;;;;0.20;0.20;;;;;;;1.87;100.00;94734.63;5054868;28;20048;-75
2023/01/16 01:45:17;;;;;;;0.20;0.20;;;;;;;1.92;100.00;94740.78;5051363;28;20379;-75
2023/01/16 01:48:12;;;;;;;0.20;0.20;;;;;;;1.77;100.00;94719.41;5031414;28;20044;-72
2023/01/16 01:51:03;;;;;;;0.20;0.20;;;;;;;1.81;100.00;94710.00;5052267;28;20249;-73
2023/01/16 01:54:18;;;;;;;0.20;0.20;;;;;;;1.83;100.00;94700.00;5053855;28;20113;-73
2023/01/16 01:57:23;;;;;;;0.20;0.20;;;;;;;1.81;100.00;94702.06;5055761;28;20056;-74
2023/01/16 02:00:13;;;;;;;0.10;0.10;;;;;;;1.90;100.00;94686.66;5052749;28;20053;-73
2023/01/16 02:03:17;;;;;;;0.20;0.20;;;;;;;1.99;100.00;94689.72;5053395;28;20278;-73
2023/01/16 02:06:09;;;;;;;0.10;0.10;;;;;;;1.95;100.00;94684.91;5051710;28;20263;-73
2023/01/16 02:08:55;;;;;;;0.20;0.20;;;;;;;1.93;100.00;94676.41;5054480;28;20684;-75
2023/01/16 02:11:53;;;;;;;0.20;0.20;;;;;;;2.04;100.00;94676.63;5056662;28;20037;-75
2023/01/16 02:14:41;;;;;;;0.20;0.20;;;;;;;1.99;100.00;94658.84;5064820;28;20379;-74
2023/01/16 02:20:40;;;;;;;0.20;0.20;;;;;;;1.94;100.00;94661.41;5062981;28;20114;-75
2023/01/16 02:23:59;;;;;;;0.20;0.20;;;;;;;1.95;100.00;94653.25;5052930;28;20029;-75
2023/01/16 02:26:53;;;;;;;0.20;0.20;;;;;;;1.92;100.00;94635.25;5066073;28;20036;-74
2023/01/16 02:29:57;;;;;;;0.20;0.20;;;;;;;1.93;100.00;94633.41;5054729;28;20086;-76
2023/01/16 02:33:04;;;;;;;0.20;0.20;;;;;;;2.02;100.00;94631.19;5051777;28;20046;-75
2023/01/16 02:36:25;;;;;;;0.20;0.20;;;;;;;1.98;100.00;94619.53;5052886;28;20036;-75
2023/01/16 02:39:29;;;;;;;0.20;0.20;;;;;;;1.94;100.00;94608.63;5048399;28;20036;-73
2023/01/16 02:42:36;;;;;;;0.20;0.20;;;;;;;1.88;100.00;94593.78;5053959;28;20029;-76
2023/01/16 02:45:32;;;;;;;0.20;0.20;;;;;;;1.90;100.00;94592.50;5053040;28;20039;-75
2023/01/16 02:48:27;;;;;;;0.10;0.10;;;;;;;1.86;100.00;94583.44;5052581;28;20046;-74
2023/01/16 02:51:23;;;;;;;0.20;0.20;;;;;;;1.88;100.00;94573.47;5053938;28;20140;-75
2023/01/16 02:55:00;;;;;;;0.10;0.10;;;;;;;1.86;100.00;94574.75;5045293;28;20094;-75
2023/01/16 02:57:50;;;;;;;0.20;0.20;;;;;;;1.89;100.00;94561.88;5035322;28;20037;-75
2023/01/16 03:00:37;;;;;;;0.20;0.20;;;;;;;1.77;100.00;94561.16;5049655;28;20462;-75
2023/01/16 03:03:55;;;;;;;0.20;0.20;;;;;;;1.84;100.00;94548.59;5053431;28;20025;-75
2023/01/16 03:06:50;;;;;;;0.20;0.20;;;;;;;1.75;100.00;94547.41;5031344;28;20040;-75
2023/01/16 03:09:51;;;;;;;0.20;0.20;;;;;;;1.75;100.00;94541.34;5054790;28;20052;-75
2023/01/16 03:12:49;;;;;;;0.20;0.20;;;;;;;1.74;100.00;94537.91;5051705;28;20487;-73
2023/01/16 03:15:48;;;;;;;0.20;0.20;;;;;;;1.72;100.00;94528.66;5050699;28;20498;-75
2023/01/16 03:19:12;;;;;;;0.20;0.20;;;;;;;1.85;100.00;94520.38;5050715;28;20177;-74
2023/01/16 03:22:35;;;;;;;0.20;0.20;;;;;;;1.79;100.00;94523.97;5050426;28;20127;-74
2023/01/16 03:25:43;;;;;;;0.20;0.20;;;;;;;1.80;100.00;94518.50;5030702;28;20655;-75
2023/01/16 03:28:40;;;;;;;0.20;0.20;;;;;;;1.74;100.00;94514.19;5051654;28;20409;-75
2023/01/16 03:31:49;;;;;;;0.20;0.20;;;;;;;1.78;100.00;94509.19;5050074;28;20471;-75
2023/01/16 03:34:51;;;;;;;0.10;0.10;;;;;;;1.69;100.00;94490.34;5049442;28;20798;-74
2023/01/16 03:37:49;;;;;;;0.10;0.10;;;;;;;1.69;100.00;94495.63;5062526;28;20037;-73
2023/01/16 03:40:42;;;;;;;0.20;0.20;;;;;;;1.69;100.00;94477.16;5051884;28;20079;-75
2023/01/16 03:43:32;;;;;;;0.20;0.20;;;;;;;1.59;100.00;94477.03;5053239;28;20045;-75
2023/01/16 03:46:31;;;;;;;0.20;0.20;;;;;;;1.73;100.00;94470.38;5053289;28;20684;-73
2023/01/16 03:49:21;;;;;;;0.10;0.10;;;;;;;1.78;100.00;94459.91;5052093;28;20043;-75
2023/01/16 03:52:12;;;;;;;0.20;0.20;;;;;;;1.79;100.00;94448.34;5050409;28;20040;-75
2023/01/16 03:55:03;;;;;;;0.20;0.20;;;;;;;1.87;100.00;94447.13;5052812;28;20029;-75
2023/01/16 03:57:53;;;;;;;0.20;0.20;;;;;;;1.81;100.00;94453.34;5051466;28;20044;-76
2023/01/16 04:00:50;;;;;;;0.20;0.20;;;;;;;1.76;100.00;94440.09;5049333;28;20130;-75
2023/01/16 04:04:23;;;;;;;0.20;0.20;;;;;;;1.73;100.00;94430.03;5049900;28;20093;-73
2023/01/16 04:07:18;;;;;;;;;;;;;;;1.74;100.00;94427.16;5029681;28;20048;-75
2023/01/16 04:10:09;;;;;;;0.20;0.20;;;;;;;1.80;100.00;94422.75;5053023;28;20420;-73
2023/01/16 04:12:58;;;;;;;0.20;0.20;;;;;;;1.76;100.00;94421.63;5052347;28;20048;-73
2023/01/16 04:15:52;;;;;;;0.20;0.20;;;;;;;1.75;100.00;94410.28;5050533;28;20595;-75
2023/01/16 04:18:38;;;;;;;0.10;0.10;;;;;;;1.63;100.00;94401.66;5042775;28;20040;-72
2023/01/16 04:21:28;;;;;;;0.20;0.20;;;;;;;1.82;100.00;94389.81;5050390;28;20085;-75
2023/01/16 04:24:16;;;;;;;0.20;0.20;;;;;;;1.69;100.00;94382.25;5054656;28;20032;-73
2023/01/16 04:27:02;;;;;;;0.20;0.20;;;;;;;1.72;100.00;94368.59;5051487;28;20040;-76
2023/01/16 04:29:50;;;;;;;0.20;0.20;;;;;;;1.72;100.00;94370.44;5053697;28;20063;-75
2023/01/16 04:32:36;;;;;;;0.20;0.20;;;;;;;1.71;100.00;94374.09;5048772;28;20076;-73
2023/01/16 04:35:22;;;;;;;0.10;0.10;;;;;;;1.75;100.00;94340.94;5052713;28;20437;-75
2023/01/16 04:38:09;;;;;;;0.20;0.20;;;;;;;1.65;100.00;94333.69;5051476;28;20044;-74
2023/01/16 04:40:55;;;;;;;0.20;0.20;;;;;;;1.57;100.00;94316.44;5050057;28;20056;-74
2023/01/16 04:43:41;;;;;;;0.20;0.20;;;;;;;1.68;100.00;94312.09;5043283;28;20556;-75
2023/01/16 04:46:27;;;;;;;0.20;0.20;;;;;;;1.65;100.00;94308.13;5051124;28;20044;-76
2023/01/16 04:49:13;;;;;;;0.20;0.20;;;;;;;1.63;100.00;94299.66;5053876;28;20036;-76
2023/01/16 04:51:59;;;;;;;0.20;0.20;;;;;;;1.64;100.00;94290.72;5063480;28;20723;-76
2023/01/16 04:54:44;;;;;;;0.20;0.20;;;;;;;1.60;100.00;94291.44;5052247;28;20098;-75
2023/01/16 04:57:30;;;;;;;0.20;0.20;;;;;;;1.67;100.00;94289.41;5056811;28;20051;-75
2023/01/16 05:00:17;;;;;;;0.20;0.20;;;;;;;1.69;100.00;94284.69;5053345;28;20340;-76
2023/01/16 05:03:03;;;;;;;0.20;0.20;;;;;;;1.70;100.00;94283.63;5065570;28;20055;-74
2023/01/16 05:05:48;;;;;;;0.20;0.20;;;;;;;1.62;100.00;94255.06;5056066;28;20360;-76
2023/01/16 05:08:34;;;;;;;0.20;0.20;;;;;;;1.69;100.00;94255.69;5067703;28;20412;-75
2023/01/16 05:11:20;;;;;;;0.20;0.20;;;;;;;1.58;100.00;94238.16;5055393;28;20062;-76
2023/01/16 05:14:07;;;;;;;0.20;0.20;;;;;;;1.60;100.00;94236.88;5056856;28;20218;-76
2023/01/16 05:16:53;;;;;;;0.20;0.20;;;;;;;1.64;100.00;94226.63;5046851;28;20186;-75
2023/01/16 05:19:39;;;;;;;0.20;0.20;;;;;;;1.59;100.00;94221.28;5066980;28;20039;-74
2023/01/16 05:22:25;;;;;;;0.20;0.20;;;;;;;1.74;100.00;94223.31;5055699;28;20035;-76
2023/01/16 05:25:11;;;;;;;0.20;0.20;;;;;;;1.66;100.00;94217.44;5055864;28;20044;-77
2023/01/16 05:27:57;;;;;;;0.20;0.20;;;;;;;1.55;100.00;94199.09;5057454;28;20036;-77
2023/01/16 05:30:43;;;;;;;0.20;0.20;;;;;;;1.53;100.00;94186.16;5043174;28;20376;-74
2023/01/16 05:33:29;;;;;;;0.20;0.20;;;;;;;1.53;100.00;94172.19;5037299;28;20036;-73
2023/01/16 05:36:14;;;;;;;0.20;0.20;;;;;;;1.50;100.00;94162.94;5054512;28;20049;-72
2023/01/16 05:39:01;;;;;;;0.20;0.20;;;;;;;1.61;100.00;94161.19;5053519;28;20037;-73
2023/01/16 05:41:47;;;;;;;0.13;0.13;;;;;;;1.68;100.00;94153.91;5056321;28;20462;-74
2023/01/16 05:44:32;;;;;;;0.10;0.10;;;;;;;1.64;100.00;94134.38;5054506;28;20557;-76
2023/01/16 05:47:19;;;;;;;0.20;0.20;;;;;;;1.61;100.00;94127.72;5056066;28;20045;-74
2023/01/16 05:50:06;;;;;;;0.20;0.20;;;;;;;1.69;100.00;94129.13;5054379;28;20575;-74
2023/01/16 05:52:52;;;;;;;0.20;0.20;;;;;;;1.58;100.00;94119.53;5054989;28;20210;-76
2023/01/16 05:55:43;;;;;;;0.20;0.20;;;;;;;1.63;100.00;94107.19;5055211;28;20044;-75
2023/01/16 05:58:29;;;;;;;;;;;;;;;1.58;100.00;94086.06;5058702;28;20116;-76
2023/01/16 06:01:15;;;;;;;0.28;0.28;;;;;;;1.58;100.00;94093.16;5056085;28;20395;-74
2023/01/16 06:04:01;;;;;;;0.13;0.13;;;;;;;1.61;100.00;94092.66;5056650;28;20036;-74
2023/01/16 06:06:46;;;;;;;0.20;0.20;;;;;;;1.52;100.00;94084.41;5042690;28;20048;-76
2023/01/16 06:09:32;;;;;;;0.20;0.20;;;;;;;1.56;100.00;94079.44;5042443;28;20577;-76
2023/01/16 06:12:19;;;;;;;0.20;0.20;;;;;;;1.59;100.00;94071.81;5069224;27;20045;-75
2023/01/16 06:15:05;;;;;;;0.20;0.20;;;;;;;1.58;100.00;94064.19;5055063;28;20048;-74
2023/01/16 06:17:53;;;;;;;0.20;0.20;;;;;;;1.59;100.00;94056.00;5056343;28;20044;-76
2023/01/16 06:20:40;;;;;;;0.20;0.20;;;;;;;1.56;100.00;94061.00;5052665;28;20086;-74
2023/01/16 06:23:26;;;;;;;0.20;0.20;;;;;;;1.51;100.00;94050.41;5053750;28;20329;-76
2023/01/16 06:26:12;;;;;;;0.10;0.10;;;;;;;1.52;100.00;94041.44;5055384;28;20556;-73
2023/01/16 06:28:58;;;;;;;0.20;0.20;;;;;;;1.59;100.00;94042.81;5055119;28;20269;-73
2023/01/16 06:31:44;;;;;;;0.20;0.20;;;;;;;1.51;100.00;94018.78;5056075;28;20113;-73
2023/01/16 06:34:30;;;;;;;0.20;0.20;;;;;;;1.49;100.00;94011.13;5041085;28;20037;-75
2023/01/16 06:37:15;;;;;;;0.10;0.10;;;;;;;1.48;100.00;94013.97;5056275;28;20044;-73
2023/01/16 06:40:02;;;;;;;0.20;0.20;;;;;;;1.46;100.00;94001.06;5038656;28;20485;-75
2023/01/16 06:42:47;;;;;;;0.20;0.20;;;;;;;1.44;100.00;94005.78;5053999;28;20467;-74
2023/01/16 06:45:33;;;;;;;0.20;0.20;;;;;;;1.47;100.00;94002.66;5066009;28;20040;-75
2023/01/16 06:48:19;;;;;;;0.13;0.13;;;;;;;1.50;100.00;93996.09;5053956;28;20048;-75
2023/01/16 06:51:05;;;;;;;0.15;0.15;;;;;;;1.51;100.00;94006.38;5046157;28;20041;-75
2023/01/16 06:53:51;;;;;;;0.20;0.20;;;;;;;1.59;100.00;94010.41;5066235;28;20653;-75
2023/01/16 06:56:37;;;;;;;0.20;0.20;;;;;;;1.70;100.00;94019.19;5039884;28;20155;-74
2023/01/16 06:59:23;;;;;;;0.20;0.20;;;;;;;1.60;100.00;94004.06;5053485;28;20087;-75
2023/01/16 07:02:09;;;;;;;0.10;0.10;;;;;;;1.56;100.00;93982.72;5053356;28;20071;-74
2023/01/16 07:04:55;;;;;;;0.20;0.20;;;;;;;1.41;100.00;93960.72;5053764;28;20383;-76
2023/01/16 07:07:41;;;;;;;0.20;0.20;;;;;;;1.44;100.00;93970.75;5051814;28;20495;-76
2023/01/16 07:10:27;;;;;;;0.20;0.20;;;;;;;1.41;100.00;93956.25;5052558;28;20721;-75
2023/01/16 07:13:13;;;;;;;0.20;0.20;;;;;;;1.50;100.00;93959.19;5054533;28;20424;-75
2023/01/16 07:25:34;;;;;;;0.10;0.10;;;;;;;1.48;100.00;93917.28;5001972;28;20490;-75
2023/01/16 07:28:20;;;;;;;0.20;0.20;;;;;;;1.44;100.00;93910.13;5046509;28;20047;-75
2023/01/16 07:31:07;;;;;;;0.20;0.20;;;;;;;1.27;100.00;93913.69;5053925;28;20704;-74
2023/01/16 07:33:53;;;;;;;0.20;0.20;;;;;;;1.08;100.00;93907.22;5055115;28;20444;-75
2023/01/16 07:36:39;;;;;;;0.15;0.15;;;;;;;1.06;100.00;93906.69;5053283;28;20047;-75
2023/01/16 07:39:24;;;;;;;0.13;0.13;;;;;;;1.04;100.00;93909.56;5054331;28;20117;-76
2023/01/16 07:42:10;;;;;;;0.20;0.20;;;;;;;1.01;100.00;93894.28;5066486;28;20040;-74
2023/01/16 07:44:56;;;;;;;0.20;0.20;;;;;;;0.98;100.00;93888.69;5054243;28;20155;-75
2023/01/16 07:47:42;;;;;;;0.20;0.20;;;;;;;0.95;100.00;93868.16;5053837;28;20040;-75
2023/01/16 07:50:28;;;;;;;0.20;0.20;;;;;;;0.99;100.00;93858.69;5040276;28;20126;-76
2023/01/16 07:53:14;;;;;;;0.20;0.20;;;;;;;0.93;100.00;93846.50;5051467;28;20503;-75
2023/01/16 07:56:20;;;;;;;0.20;0.20;;;;;;;0.83;100.00;93834.88;5055321;28;20040;-74
2023/01/16 07:59:06;;;;;;;0.20;0.20;;;;;;;0.89;100.00;93821.75;5053112;28;20053;-76
2023/01/16 08:01:52;;;;;;;0.20;0.20;;;;;;;0.80;100.00;93811.69;5052253;28;20119;-75
2023/01/16 08:04:38;;;;;;;0.20;0.20;;;;;;;0.72;100.00;93796.34;5052558;28;20051;-75
2023/01/16 08:07:24;;;;;;;0.20;0.20;;;;;;;0.76;100.00;93796.63;5054067;28;20055;-76
2023/01/16 08:10:10;;;;;;;0.20;0.20;;;;;;;0.69;100.00;93785.53;5056117;28;20465;-74
2023/01/16 08:12:56;;;;;;;0.20;0.20;;;;;;;0.67;100.00;93785.78;5051335;28;20131;-75
2023/01/16 08:15:42;;;;;;;0.20;0.20;;;;;;;0.72;100.00;93792.94;5052690;28;20048;-75
2023/01/16 08:18:28;;;;;;;0.20;0.20;;;;;;;0.71;100.00;93784.25;5040226;28;20044;-75
2023/01/16 08:21:15;;;;;;;0.20;0.20;;;;;;;0.74;100.00;93786.34;5050793;28;20044;-76
2023/01/16 08:24:01;;;;;;;0.20;0.20;;;;;;;0.73;100.00;93766.34;5056353;28;20048;-75
2023/01/16 08:26:47;;;;;;;0.20;0.20;;;;;;;0.65;100.00;93758.91;5053391;28;20076;-76
2023/01/16 08:29:33;;;;;;;0.20;0.20;;;;;;;0.55;100.00;93770.16;5050944;28;20041;-74
2023/01/16 08:32:19;;;;;;;0.20;0.20;;;;;;;0.33;100.00;93758.94;5054223;28;20052;-74
2023/01/16 08:35:05;;;;;;;0.17;0.17;;;;;;;0.39;100.00;93759.75;5052729;28;20140;-74
2023/01/16 08:37:51;;;;;;;0.20;0.20;;;;;;;0.26;100.00;93751.25;5055758;28;20144;-75
2023/01/16 08:40:37;;;;;;;0.20;0.20;;;;;;;0.19;100.00;93740.13;5052882;28;20068;-74
2023/01/16 08:52:37;;;;;;;0.20;0.20;;;;;;;0.26;100.00;93724.16;5055537;28;20040;-74
2023/01/16 08:55:23;;;;;;;0.20;0.20;;;;;;;0.32;100.00;93711.84;5050896;28;20106;-74
2023/01/16 08:58:08;;;;;;;0.20;0.20;;;;;;;0.39;100.00;93717.66;5054655;28;20040;-75
2023/01/16 09:00:54;;;;;;;0.20;0.20;;;;;;;0.39;100.00;93715.84;5050449;28;20052;-76
2023/01/16 09:03:40;;;;;;;0.20;0.20;;;;;;;0.33;100.00;93714.22;5065660;28;20312;-75
2023/01/16 09:06:26;;;;;;;0.20;0.20;;;;;;;0.48;100.00;93708.28;5007490;28;20567;-76
2023/01/16 09:09:32;;;;;;;0.20;0.20;;;;;;;0.56;100.00;93702.53;5054515;28;20083;-74
2023/01/16 09:15:23;;;;;;;0.20;0.20;;;;;;;0.55;100.00;93708.84;5053175;28;20583;-75
2023/01/16 09:18:09;;;;;;;0.20;0.20;;;;;;;0.55;100.00;93696.47;5052173;28;20044;-76
2023/01/16 09:20:55;;;;;;;0.20;0.20;;;;;;;0.64;100.00;93704.69;5040807;28;20509;-75
2023/01/16 09:23:40;;;;;;;0.20;0.20;;;;;;;0.67;100.00;93696.28;5051175;28;20442;-75
2023/01/16 09:26:26;;;;;;;0.20;0.20;;;;;;;0.68;100.00;93671.53;5051046;28;20929;-75
2023/01/16 09:29:12;;;;;;;0.10;0.10;;;;;;;0.54;100.00;93673.03;5065794;28;20044;-75
2023/01/16 09:31:58;;;;;;;0.20;0.20;;;;;;;0.62;100.00;93645.44;5052194;28;20052;-74
2023/01/16 09:35:05;;;;;;;0.20;0.20;;;;;;;0.55;100.00;93659.63;5050852;28;20272;-75
2023/01/16 09:37:54;;;;;;;0.20;0.20;;;;;;;0.58;100.00;93647.81;5055095;28;20487;-75
2023/01/16 09:40:49;;;;;;;0.20;0.20;;;;;;;0.58;100.00;93655.69;5050162;28;20048;-75
2023/01/16 09:43:39;;;;;;;0.13;0.13;;;;;;;0.58;100.00;93645.19;5055362;28;20131;-75
2023/01/16 09:46:28;;;;;;;0.20;0.20;;;;;;;0.58;100.00;93647.81;5054785;28;20044;-76
2023/01/16 09:49:25;;;;;;;0.20;0.20;;;;;;;0.53;100.00;93639.88;5058628;28;20061;-74
2023/01/16 09:58:44;;;;;;;0.20;0.20;;;;;;;0.39;100.00;93636.91;5055836;28;20276;-75
2023/01/16 10:01:53;;;;;;;0.10;0.10;;;;;;;0.35;100.00;93630.56;5053424;28;20447;-76
2023/01/16 10:04:39;;;;;;;0.20;0.20;;;;;;;0.32;100.00;93614.50;5051843;28;20424;-75
2023/01/16 10:07:34;;;;;;;0.20;0.20;;;;;;;0.23;100.00;93612.34;5057627;28;20676;-75
2023/01/16 10:10:44;;;;;;;0.20;0.20;;;;;;;0.16;100.00;93617.03;5053348;28;20463;-74
2023/01/16 10:13:45;;;;;;;0.10;0.10;;;;;;;0.12;100.00;93610.69;5053976;28;20042;-75
2023/01/16 10:16:43;;;;;;;0.20;0.20;;;;;;;0.11;100.00;93587.28;5067323;27;20747;-77
2023/01/16 10:19:55;;;;;;;0.20;0.20;;;;;;;0.09;100.00;93595.41;5046770;28;20045;-76
2023/01/16 10:22:59;;;;;;;0.20;0.20;;;;;;;0.17;100.00;93589.69;5053054;28;20765;-75
2023/01/16 10:26:15;;;;;;;0.20;0.20;;;;;;;0.20;100.00;93597.06;5047454;28;20913;-75
2023/01/16 10:29:22;;;;;;;0.17;0.17;;;;;;;0.33;100.00;93569.53;5041657;28;20036;-74
2023/01/16 10:32:21;;;;;;;0.20;0.20;;;;;;;0.26;100.00;93582.91;5053726;28;20440;-74
2023/01/16 10:35:24;;;;;;;0.20;0.20;;;;;;;0.33;100.00;93566.09;5052832;28;20040;-75
2023/01/16 10:38:44;;;;;;;0.20;0.20;;;;;;;0.33;100.00;93558.22;5058088;28;20546;-75
2023/01/16 10:51:07;;;;;;;0.10;0.10;;;;;;;0.53;100.00;93516.19;5069732;28;20079;-75
2023/01/16 10:53:52;;;;;;;0.20;0.20;;;;;;;0.50;100.00;93509.63;5055176;28;20071;-77
2023/01/16 10:56:42;;;;;;;0.20;0.20;;;;;;;0.49;100.00;93492.25;5054049;28;20441;-76
2023/01/16 10:59:31;;;;;;;0.20;0.20;;;;;;;0.54;100.00;93488.81;5037974;28;20043;-77
2023/01/16 11:02:29;;;;;;;0.20;0.20;;;;;;;0.64;100.00;93481.00;5044209;28;20063;-76
2023/01/16 11:05:33;;;;;;;0.30;0.22;;;;;;;0.53;100.00;93474.09;5052814;28;20365;-77
2023/01/16 11:08:22;;;;;;;0.20;0.20;;;;;;;0.51;100.00;93479.63;5055483;28;20514;-74
2023/01/16 11:20:44;;;;;;;0.20;0.20;;;;;;;0.68;100.00;93453.09;5055113;28;20122;-75
2023/01/16 11:23:38;;;;;;;0.20;0.20;;;;;;;0.56;100.00;93449.91;5055097;28;20907;-75
2023/01/16 11:26:24;;;;;;;0.20;0.20;;;;;;;0.62;100.00;93435.69;5056963;28;20037;-75
2023/01/16 11:29:16;;;;;;;0.20;0.20;;;;;;;0.66;100.00;93412.28;5056810;28;20044;-75
2023/01/16 11:32:08;;;;;;;0.20;0.20;;;;;;;0.60;100.00;93431.75;5052342;28;20082;-76
2023/01/16 11:34:57;;;;;;;0.20;0.20;;;;;;;0.59;100.00;93420.44;5053305;28;20035;-75
2023/01/16 11:37:45;;;;;;;0.20;0.20;;;;;;;0.76;100.00;93421.00;4348814;28;10000531;-75
2023/01/16 11:40:44;;;;;;;0.20;0.20;;;;;;;0.69;100.00;93399.38;5053814;28;20456;-75
2023/01/16 11:46:37;;;;;;;0.20;0.20;;;;;;;0.72;100.00;93395.47;5051291;28;20388;-75
2023/01/16 11:49:33;;;;;;;0.20;0.20;;;;;;;0.83;100.00;93389.94;5052525;28;20051;-76
2023/01/16 11:52:29;;;;;;;0.20;0.20;;;;;;;0.79;100.00;93386.25;5041151;28;20127;-75
2023/01/16 11:55:15;;;;;;;0.20;0.20;;;;;;;0.82;100.00;93383.09;5039924;28;20044;-75
2023/01/16 11:58:25;;;;;;;0.20;0.20;;;;;;;0.82;100.00;93371.78;5050802;28;20052;-76
2023/01/16 12:01:21;;;;;;;0.20;0.20;;;;;;;0.93;100.00;93362.81;5048149;28;20098;-76
2023/01/16 12:04:17;;;;;;;0.20;0.20;;;;;;;0.79;100.00;93346.00;5050805;28;20589;-75
2023/01/16 12:07:26;;;;;;;0.20;0.20;;;;;;;0.88;100.00;93357.56;5049787;28;20244;-75
2023/01/16 12:11:00;;;;;;;0.20;0.20;;;;;;;0.75;100.00;93356.25;5053037;28;20367;-75
2023/01/16 12:14:17;;;;;;;0.20;0.20;;;;;;;0.75;100.00;93327.28;5049889;28;20031;-75
2023/01/16 12:17:16;;;;;;;0.20;0.20;;;;;;;0.80;100.00;93319.41;5051423;28;20568;-75
2023/01/16 12:20:24;;;;;;;0.20;0.20;;;;;;;0.84;100.00;93317.00;5051174;28;20050;-75
2023/01/16 12:23:34;;;;;;;0.20;0.20;;;;;;;0.85;100.00;93313.31;5051711;28;20036;-75
2023/01/16 12:26:29;;;;;;;0.20;0.20;;;;;;;1.01;100.00;93304.38;5053204;28;20566;-74
2023/01/16 12:29:28;;;;;;;0.25;0.25;;;;;;;0.98;100.00;93289.09;5053178;28;20032;-75
2023/01/16 12:32:53;;;;;;;0.20;0.20;;;;;;;1.09;100.00;93268.81;5051925;28;20040;-74
2023/01/16 12:36:24;;;;;;;0.20;0.20;;;;;;;1.09;100.00;93263.56;5042175;28;20059;-74
2023/01/16 12:39:36;;;;;;;0.20;0.20;;;;;;;1.04;100.00;93239.84;5055609;28;20047;-74
2023/01/16 12:45:48;;;;;;;0.20;0.20;;;;;;;1.11;100.00;93230.63;5049599;28;20449;-75
2023/01/16 12:48:35;;;;;;;0.20;0.20;;;;;;;1.07;100.00;93241.94;5049952;28;20115;-76
2023/01/16 12:51:30;;;;;;;0.20;0.20;;;;;;;1.15;100.00;93224.81;5050706;28;20156;-75
2023/01/16 12:54:22;;;;;;;0.20;0.20;;;;;;;1.24;100.00;93213.44;5052004;28;20119;-75
2023/01/16 12:57:07;;;;;;;;;;;;;;;1.25;100.00;93188.69;5039295;28;20101;-74
2023/01/16 12:59:59;;;;;;;0.20;0.20;;;;;;;1.27;100.00;93189.22;5053167;28;20543;-75
2023/01/16 13:03:03;;;;;;;0.20;0.20;;;;;;;1.19;100.00;93179.25;5053552;28;20043;-74
2023/01/16 13:05:53;;;;;;;0.20;0.20;;;;;;;1.16;100.00;93174.50;5052956;28;20254;-76
2023/01/16 13:08:49;;;;;;;0.20;0.20;;;;;;;1.19;100.00;93179.25;5053815;28;20108;-74
2023/01/16 13:15:09;;;;;;;0.30;0.30;;;;;;;1.14;100.00;93162.66;5052672;28;20393;-75
2023/01/16 13:18:08;;;;;;;0.20;0.20;;;;;;;1.09;100.00;93155.59;5056413;28;20152;-75
2023/01/16 13:20:57;;;;;;;0.28;0.28;;;;;;;1.08;100.00;93144.22;5054422;28;20180;-75
2023/01/16 13:23:55;;;;;;;0.20;0.20;;;;;;;1.12;100.00;93152.41;5070723;28;20032;-75
2023/01/16 13:26:41;;;;;;;0.20;0.20;;;;;;;1.19;100.00;93136.31;5057278;28;20043;-75
2023/01/16 13:29:45;;;;;;;0.20;0.20;;;;;;;1.25;100.00;93114.16;5057358;28;20380;-76
2023/01/16 13:32:40;;;;;;;0.20;0.20;;;;;;;1.35;100.00;93116.72;5058113;28;20051;-76
2023/01/16 13:35:52;;;;;;;0.20;0.20;;;;;;;1.33;100.00;93105.69;5055993;28;20051;-76
2023/01/16 13:38:46;;;;;;;0.20;0.20;;;;;;;1.26;100.00;93116.53;5057249;28;20036;-74
2023/01/16 13:41:43;;;;;;;0.20;0.20;;;;;;;1.29;100.00;93094.09;5057015;28;20518;-75
2023/01/16 13:47:45;;;;;;;0.20;0.20;;;;;;;1.42;100.00;93082.19;5056519;28;20470;-76
2023/01/16 13:50:35;;;;;;;0.15;0.15;;;;;;;1.43;100.00;93081.91;5042765;28;20040;-76
2023/01/16 13:53:22;;;;;;;0.20;0.20;;;;;;;1.40;100.00;93090.34;5051971;28;20043;-76
2023/01/16 13:56:10;;;;;;;0.20;0.20;;;;;;;1.55;100.00;93082.34;5055251;28;20082;-75
2023/01/16 13:59:02;;;;;;;0.20;0.20;;;;;;;1.54;100.00;93075.50;5054883;28;20040;-75
2023/01/16 14:01:48;;;;;;;0.20;0.20;;;;;;;1.50;100.00;93057.88;5054636;28;20040;-76
2023/01/16 14:04:34;;;;;;;0.20;0.20;;;;;;;1.48;100.00;93055.53;5055339;28;20044;-75
2023/01/16 14:10:55;;;;;;;0.20;0.20;;;;;;;1.57;100.00;93042.56;5055319;28;20048;-75
2023/01/16 14:13:42;;;;;;;0.20;0.20;;;;;;;1.50;100.00;93050.78;5039160;28;20028;-76
2023/01/16 14:16:38;;;;;;;0.20;0.20;;;;;;;1.41;100.00;93031.34;5056647;28;20484;-76
2023/01/16 14:19:24;;;;;;;0.20;0.20;;;;;;;1.35;100.00;93029.78;5071065;28;20040;-75
2023/01/16 14:25:07;;;;;;;0.20;0.20;;;;;;;1.38;100.00;93019.47;5056582;28;20040;-74
2023/01/16 14:27:54;;;;;;;0.20;0.20;;;;;;;1.43;100.00;93016.03;5053652;28;20178;-76
2023/01/16 14:30:44;;;;;;;0.20;0.20;;;;;;;1.37;100.00;93010.00;5054249;28;20036;-75
2023/01/16 14:33:30;;;;;;;0.10;0.10;;;;;;;1.35;100.00;93009.50;5056477;28;20036;-76
2023/01/16 14:36:24;;;;;;;0.20;0.20;;;;;;;1.27;100.00;93010.09;5055371;28;21306;-75
2023/01/16 14:39:33;;;;;;;0.20;0.20;;;;;;;1.34;100.00;93002.66;5055307;28;20047;-75
2023/01/16 14:55:13;;;;;;;0.10;0.10;;;;;;;1.36;100.00;92955.75;5052016;28;20040;-75